sensor_id;sensor_type;location;lat;lon;timestamp;pressure;altitude;pressure_sealevel;temperature;humidity
70506;BME280;58032;49.820;6.274;2022-11-12T00:02:42;99205.03;;;4.36;100.00
70506;BME280;58032;49.820;6.274;2022-11-12T00:05:27;99200.53;;;4.58;100.00
70506;BME280;58032;49.820;6.274;2022-11-12T00:08:12;99199.81;;;4.65;100.00
70506;BME280;58032;49.820;6.274;2022-11-12T00:10:58;99191.13;;;4.39;100.00
70506;BME280;58032;49.820;6.274;2022-11-12T00:13:44;99195.69;;;4.51;100.00
70506;BME280;58032;49.820;6.274;2022-11-12T00:16:29;99190.47;;;4.50;100.00
70506;BME280;58032;49.820;6.274;2022-11-12T00:19:15;99187.09;;;4.37;100.00
70506;BME280;58032;49.820;6.274;2022-11-12T00:22:00;99186.13;;;4.22;100.00
70506;BME280;58032;49.820;6.274;2022-11-12T00:24:45;99183.63;;;4.13;100.00
70506;BME280;58032;49.820;6.274;2022-11-12T00:27:32;99182.44;;;3.87;100.00
70506;BME280;58032;49.820;6.274;2022-11-12T00:30:17;99189.44;;;4.04;100.00
70506;BME280;58032;49.820;6.274;2022-11-12T00:33:03;99199.81;;;4.04;100.00
70506;BME280;58032;49.820;6.274;2022-11-12T00:35:49;99198.88;;;3.96;100.00
70506;BME280;58032;49.820;6.274;2022-11-12T00:38:34;99200.66;;;4.08;100.00
70506;BME280;58032;49.820;6.274;2022-11-12T00:41:20;99198.41;;;4.17;100.00
70506;BME280;58032;49.820;6.274;2022-11-12T00:44:05;99207.19;;;4.19;100.00
70506;BME280;58032;49.820;6.274;2022-11-12T00:46:50;99200.75;;;4.15;100.00
70506;BME280;58032;49.820;6.274;2022-11-12T00:49:36;99209.75;;;4.32;100.00
70506;BME280;58032;49.820;6.274;2022-11-12T00:52:22;99203.97;;;4.17;100.00
70506;BME280;58032;49.820;6.274;2022-11-12T00:55:07;99194.38;;;3.88;100.00
70506;BME280;58032;49.820;6.274;2022-11-12T00:57:53;99200.19;;;4.02;100.00
70506;BME280;58032;49.820;6.274;2022-11-12T01:00:38;99197.22;;;3.91;100.00
70506;BME280;58032;49.820;6.274;2022-11-12T01:03:26;99203.13;;;4.13;100.00
70506;BME280;58032;49.820;6.274;2022-11-12T01:06:15;99205.16;;;3.89;100.00
70506;BME280;58032;49.820;6.274;2022-11-12T01:09:01;99204.41;;;3.92;100.00
70506;BME280;58032;49.820;6.274;2022-11-12T01:11:46;99194.91;;;3.70;100.00
70506;BME280;58032;49.820;6.274;2022-11-12T01:14:32;99203.38;;;3.77;100.00
70506;BME280;58032;49.820;6.274;2022-11-12T01:17:18;99203.28;;;3.70;100.00
70506;BME280;58032;49.820;6.274;2022-11-12T01:20:04;99202.03;;;3.68;100.00
70506;BME280;58032;49.820;6.274;2022-11-12T01:22:49;99202.59;;;3.54;100.00
70506;BME280;58032;49.820;6.274;2022-11-12T01:25:36;99197.66;;;3.67;100.00
70506;BME280;58032;49.820;6.274;2022-11-12T01:28:22;99198.09;;;3.72;100.00
70506;BME280;58032;49.820;6.274;2022-11-12T01:31:32;99203.13;;;3.86;100.00
70506;BME280;58032;49.820;6.274;2022-11-12T01:34:18;99203.09;;;3.36;100.00
70506;BME280;58032;49.820;6.274;2022-11-12T01:37:03;99209.25;;;3.26;100.00
70506;BME280;58032;49.820;6.274;2022-11-12T01:39:49;99202.09;;;3.48;100.00
70506;BME280;58032;49.820;6.274;2022-11-12T01:42:34;99205.88;;;3.36;100.00
70506;BME280;58032;49.820;6.274;2022-11-12T01:45:20;99204.44;;;3.46;100.00
70506;BME280;58032;49.820;6.274;2022-11-12T01:48:06;99199.19;;;3.41;100.00
70506;BME280;58032;49.820;6.274;2022-11-12T01:50:56;99199.75;;;3.50;100.00
70506;BME280;58032;49.820;6.274;2022-11-12T01:53:47;99207.94;;;3.39;100.00
70506;BME280;58032;49.820;6.274;2022-11-12T01:56:36;99203.09;;;3.59;100.00
70506;BME280;58032;49.820;6.274;2022-11-12T01:59:36;99210.13;;;3.53;100.00
70506;BME280;58032;49.820;6.274;2022-11-12T02:02:22;99203.69;;;3.72;100.00
70506;BME280;58032;49.820;6.274;2022-11-12T02:05:09;99205.88;;;3.59;100.00
70506;BME280;58032;49.820;6.274;2022-11-12T02:07:56;99205.28;;;3.96;100.00
70506;BME280;58032;49.820;6.274;2022-11-12T02:10:44;99204.19;;;3.78;100.00
70506;BME280;58032;49.820;6.274;2022-11-12T02:13:29;99200.66;;;3.81;100.00
70506;BME280;58032;49.820;6.274;2022-11-12T02:16:38;99183.59;;;3.59;100.00
70506;BME280;58032;49.820;6.274;2022-11-12T02:19:25;99191.69;;;3.68;100.00
70506;BME280;58032;49.820;6.274;2022-11-12T02:22:11;99200.09;;;3.72;100.00
70506;BME280;58032;49.820;6.274;2022-11-12T02:24:56;99197.03;;;3.54;100.00
70506;BME280;58032;49.820;6.274;2022-11-12T02:27:42;99198.41;;;3.40;100.00
70506;BME280;58032;49.820;6.274;2022-11-12T02:30:41;99197.25;;;3.45;100.00
70506;BME280;58032;49.820;6.274;2022-11-12T02:33:26;99190.97;;;3.71;100.00
70506;BME280;58032;49.820;6.274;2022-11-12T02:36:11;99186.88;;;3.42;100.00
70506;BME280;58032;49.820;6.274;2022-11-12T02:38:57;99189.00;;;3.48;100.00
70506;BME280;58032;49.820;6.274;2022-11-12T02:41:42;99184.41;;;3.37;100.00
70506;BME280;58032;49.820;6.274;2022-11-12T02:44:28;99183.03;;;3.50;100.00
70506;BME280;58032;49.820;6.274;2022-11-12T02:47:14;99180.50;;;3.41;100.00
70506;BME280;58032;49.820;6.274;2022-11-12T02:49:59;99182.09;;;3.42;100.00
70506;BME280;58032;49.820;6.274;2022-11-12T02:52:44;99181.31;;;3.42;100.00
70506;BME280;58032;49.820;6.274;2022-11-12T02:55:30;99173.13;;;3.53;100.00
70506;BME280;58032;49.820;6.274;2022-11-12T02:58:15;99171.19;;;3.57;100.00
70506;BME280;58032;49.820;6.274;2022-11-12T03:01:00;99169.41;;;3.45;100.00
70506;BME280;58032;49.820;6.274;2022-11-12T03:03:46;99163.72;;;3.38;100.00
70506;BME280;58032;49.820;6.274;2022-11-12T03:06:32;99168.31;;;3.26;100.00
70506;BME280;58032;49.820;6.274;2022-11-12T03:09:17;99167.38;;;3.19;100.00
70506;BME280;58032;49.820;6.274;2022-11-12T03:12:03;99163.53;;;3.27;100.00
70506;BME280;58032;49.820;6.274;2022-11-12T03:14:49;99168.06;;;3.35;100.00
70506;BME280;58032;49.820;6.274;2022-11-12T03:17:35;99176.06;;;3.37;100.00
70506;BME280;58032;49.820;6.274;2022-11-12T03:20:20;99163.94;;;3.25;100.00
70506;BME280;58032;49.820;6.274;2022-11-12T03:23:07;99164.41;;;3.08;100.00
70506;BME280;58032;49.820;6.274;2022-11-12T03:25:53;99163.06;;;3.21;100.00
70506;BME280;58032;49.820;6.274;2022-11-12T03:28:39;99160.28;;;3.21;100.00
70506;BME280;58032;49.820;6.274;2022-11-12T03:31:25;99162.75;;;3.26;100.00
70506;BME280;58032;49.820;6.274;2022-11-12T03:34:11;99157.72;;;3.12;100.00
70506;BME280;58032;49.820;6.274;2022-11-12T03:36:56;99154.03;;;3.05;100.00
70506;BME280;58032;49.820;6.274;2022-11-12T03:39:41;99160.28;;;3.21;100.00
70506;BME280;58032;49.820;6.274;2022-11-12T03:42:27;99165.16;;;3.05;100.00
70506;BME280;58032;49.820;6.274;2022-11-12T03:45:13;99158.91;;;3.11;100.00
70506;BME280;58032;49.820;6.274;2022-11-12T03:47:58;99155.00;;;2.93;100.00
70506;BME280;58032;49.820;6.274;2022-11-12T03:50:44;99151.84;;;2.94;100.00
70506;BME280;58032;49.820;6.274;2022-11-12T03:53:29;99147.53;;;3.20;100.00
70506;BME280;58032;49.820;6.274;2022-11-12T03:56:14;99143.81;;;3.36;100.00
70506;BME280;58032;49.820;6.274;2022-11-12T03:59:00;99150.22;;;3.13;100.00
70506;BME280;58032;49.820;6.274;2022-11-12T04:01:45;99159.53;;;3.24;100.00
70506;BME280;58032;49.820;6.274;2022-11-12T04:04:31;99163.25;;;3.32;100.00
70506;BME280;58032;49.820;6.274;2022-11-12T04:07:35;99159.59;;;3.28;100.00
70506;BME280;58032;49.820;6.274;2022-11-12T04:10:39;99152.28;;;3.43;100.00
70506;BME280;58032;49.820;6.274;2022-11-12T04:13:25;99141.72;;;3.29;100.00
70506;BME280;58032;49.820;6.274;2022-11-12T04:16:18;99145.44;;;3.37;100.00
70506;BME280;58032;49.820;6.274;2022-11-12T04:19:23;99156.63;;;3.17;100.00
70506;BME280;58032;49.820;6.274;2022-11-12T04:22:27;99149.44;;;3.16;100.00
70506;BME280;58032;49.820;6.274;2022-11-12T04:25:13;99146.59;;;3.12;100.00
70506;BME280;58032;49.820;6.274;2022-11-12T04:28:17;99145.88;;;3.15;100.00
70506;BME280;58032;49.820;6.274;2022-11-12T04:31:03;99150.75;;;3.22;100.00
70506;BME280;58032;49.820;6.274;2022-11-12T04:33:48;99151.91;;;3.44;100.00
70506;BME280;58032;49.820;6.274;2022-11-12T04:36:33;99159.25;;;3.29;100.00
70506;BME280;58032;49.820;6.274;2022-11-12T04:39:19;99154.75;;;3.01;100.00
70506;BME280;58032;49.820;6.274;2022-11-12T04:42:04;99157.28;;;2.87;100.00
70506;BME280;58032;49.820;6.274;2022-11-12T04:45:09;99157.72;;;2.89;100.00
70506;BME280;58032;49.820;6.274;2022-11-12T04:47:55;99151.19;;;3.24;100.00
70506;BME280;58032;49.820;6.274;2022-11-12T04:50:41;99145.94;;;3.19;100.00
70506;BME280;58032;49.820;6.274;2022-11-12T04:53:29;99149.56;;;3.23;100.00
70506;BME280;58032;49.820;6.274;2022-11-12T04:56:15;99148.34;;;3.21;100.00
70506;BME280;58032;49.820;6.274;2022-11-12T04:59:00;99150.22;;;3.13;100.00
70506;BME280;58032;49.820;6.274;2022-11-12T05:01:46;99149.03;;;3.14;100.00
70506;BME280;58032;49.820;6.274;2022-11-12T05:04:32;99143.75;;;3.09;100.00
70506;BME280;58032;49.820;6.274;2022-11-12T05:07:17;99140.53;;;3.07;100.00
70506;BME280;58032;49.820;6.274;2022-11-12T05:10:03;99137.63;;;2.99;100.00
70506;BME280;58032;49.820;6.274;2022-11-12T05:12:48;99125.75;;;2.79;100.00
70506;BME280;58032;49.820;6.274;2022-11-12T05:15:34;99116.97;;;3.00;100.00
70506;BME280;58032;49.820;6.274;2022-11-12T05:18:19;99124.59;;;3.04;100.00
70506;BME280;58032;49.820;6.274;2022-11-12T05:21:04;99127.25;;;2.96;100.00
70506;BME280;58032;49.820;6.274;2022-11-12T05:24:10;99119.19;;;2.91;100.00
70506;BME280;58032;49.820;6.274;2022-11-12T05:27:03;99116.41;;;2.91;100.00
70506;BME280;58032;49.820;6.274;2022-11-12T05:29:49;99124.63;;;2.84;100.00
70506;BME280;58032;49.820;6.274;2022-11-12T05:32:34;99113.63;;;2.91;100.00
70506;BME280;58032;49.820;6.274;2022-11-12T05:35:19;99116.28;;;2.84;100.00
70506;BME280;58032;49.820;6.274;2022-11-12T05:38:05;99113.72;;;2.95;100.00
70506;BME280;58032;49.820;6.274;2022-11-12T05:40:50;99106.16;;;3.19;100.00
70506;BME280;58032;49.820;6.274;2022-11-12T05:43:35;99109.88;;;3.26;100.00
70506;BME280;58032;49.820;6.274;2022-11-12T05:46:21;99109.06;;;3.03;100.00
70506;BME280;58032;49.820;6.274;2022-11-12T05:49:07;99108.88;;;3.15;100.00
70506;BME280;58032;49.820;6.274;2022-11-12T05:51:52;99118.34;;;2.87;100.00
70506;BME280;58032;49.820;6.274;2022-11-12T05:54:38;99120.50;;;2.97;100.00
70506;BME280;58032;49.820;6.274;2022-11-12T05:57:26;99117.06;;;2.61;100.00
70506;BME280;58032;49.820;6.274;2022-11-12T06:00:12;99121.03;;;2.60;100.00
70506;BME280;58032;49.820;6.274;2022-11-12T06:02:57;99141.72;;;3.06;100.00
70506;BME280;58032;49.820;6.274;2022-11-12T06:05:42;99143.47;;;3.14;100.00
70506;BME280;58032;49.820;6.274;2022-11-12T06:08:28;99146.22;;;2.91;100.00
70506;BME280;58032;49.820;6.274;2022-11-12T06:11:13;99152.81;;;3.02;100.00
70506;BME280;58032;49.820;6.274;2022-11-12T06:13:59;99158.38;;;3.25;100.00
70506;BME280;58032;49.820;6.274;2022-11-12T06:16:45;99163.31;;;3.12;100.00
70506;BME280;58032;49.820;6.274;2022-11-12T06:19:30;99166.22;;;2.96;100.00
70506;BME280;58032;49.820;6.274;2022-11-12T06:22:16;99164.53;;;3.15;100.00
70506;BME280;58032;49.820;6.274;2022-11-12T06:25:01;99173.63;;;3.12;100.00
70506;BME280;58032;49.820;6.274;2022-11-12T06:27:47;99162.13;;;2.90;100.00
70506;BME280;58032;49.820;6.274;2022-11-12T06:30:32;99166.50;;;2.91;100.00
70506;BME280;58032;49.820;6.274;2022-11-12T06:33:17;99166.81;;;2.86;100.00
70506;BME280;58032;49.820;6.274;2022-11-12T06:36:04;99166.13;;;2.93;100.00
70506;BME280;58032;49.820;6.274;2022-11-12T06:38:50;99161.69;;;2.88;100.00
70506;BME280;58032;49.820;6.274;2022-11-12T06:41:35;99155.53;;;2.98;100.00
70506;BME280;58032;49.820;6.274;2022-11-12T06:44:21;99159.88;;;2.99;100.00
70506;BME280;58032;49.820;6.274;2022-11-12T06:47:07;99151.84;;;2.94;100.00
70506;BME280;58032;49.820;6.274;2022-11-12T06:49:53;99157.22;;;3.07;100.00
70506;BME280;58032;49.820;6.274;2022-11-12T06:52:38;99157.34;;;2.91;100.00
70506;BME280;58032;49.820;6.274;2022-11-12T06:55:23;99156.19;;;2.72;100.00
70506;BME280;58032;49.820;6.274;2022-11-12T06:58:09;99156.84;;;2.85;100.00
70506;BME280;58032;49.820;6.274;2022-11-12T07:00:55;99152.44;;;2.84;100.00
70506;BME280;58032;49.820;6.274;2022-11-12T07:03:42;99151.44;;;2.53;100.00
70506;BME280;58032;49.820;6.274;2022-11-12T07:06:28;99150.72;;;2.76;100.00
70506;BME280;58032;49.820;6.274;2022-11-12T07:09:13;99145.31;;;2.63;100.00
70506;BME280;58032;49.820;6.274;2022-11-12T07:11:59;99153.53;;;2.36;100.00
70506;BME280;58032;49.820;6.274;2022-11-12T07:14:44;99153.28;;;2.65;100.00
70506;BME280;58032;49.820;6.274;2022-11-12T07:17:31;99161.34;;;2.70;100.00
70506;BME280;58032;49.820;6.274;2022-11-12T07:20:16;99161.75;;;2.72;100.00
70506;BME280;58032;49.820;6.274;2022-11-12T07:23:02;99161.28;;;2.66;100.00
70506;BME280;58032;49.820;6.274;2022-11-12T07:25:57;99162.19;;;2.94;100.00
70506;BME280;58032;49.820;6.274;2022-11-12T07:28:44;99172.97;;;2.76;100.00
70506;BME280;58032;49.820;6.274;2022-11-12T07:31:30;99174.56;;;2.77;100.00
70506;BME280;58032;49.820;6.274;2022-11-12T07:34:15;99173.50;;;2.62;100.00
70506;BME280;58032;49.820;6.274;2022-11-12T07:37:01;99178.63;;;3.03;100.00
70506;BME280;58032;49.820;6.274;2022-11-12T07:39:46;99173.28;;;3.37;100.00
70506;BME280;58032;49.820;6.274;2022-11-12T07:42:32;99179.19;;;3.35;100.00
70506;BME280;58032;49.820;6.274;2022-11-12T07:45:18;99174.97;;;3.45;100.00
70506;BME280;58032;49.820;6.274;2022-11-12T07:48:04;99184.66;;;3.51;100.00
70506;BME280;58032;49.820;6.274;2022-11-12T07:50:50;99193.56;;;3.14;100.00
70506;BME280;58032;49.820;6.274;2022-11-12T07:53:35;99193.41;;;3.07;100.00
70506;BME280;58032;49.820;6.274;2022-11-12T07:56:22;99193.88;;;3.32;100.00
70506;BME280;58032;49.820;6.274;2022-11-12T07:59:09;99196.97;;;3.27;100.00
70506;BME280;58032;49.820;6.274;2022-11-12T08:01:54;99188.66;;;3.07;100.00
70506;BME280;58032;49.820;6.274;2022-11-12T08:04:40;99205.44;;;3.57;100.00
70506;BME280;58032;49.820;6.274;2022-11-12T08:07:25;99197.88;;;3.58;100.00
70506;BME280;58032;49.820;6.274;2022-11-12T08:10:11;99205.25;;;3.46;100.00
70506;BME280;58032;49.820;6.274;2022-11-12T08:12:56;99202.41;;;3.43;100.00
70506;BME280;58032;49.820;6.274;2022-11-12T08:15:41;99209.28;;;3.49;100.00
70506;BME280;58032;49.820;6.274;2022-11-12T08:18:28;99204.81;;;3.21;100.00
70506;BME280;58032;49.820;6.274;2022-11-12T08:21:16;99210.66;;;2.93;100.00
70506;BME280;58032;49.820;6.274;2022-11-12T08:24:02;99206.56;;;3.53;100.00
70506;BME280;58032;49.820;6.274;2022-11-12T08:26:47;99208.84;;;3.70;100.00
70506;BME280;58032;49.820;6.274;2022-11-12T08:29:33;99202.59;;;3.54;100.00
70506;BME280;58032;49.820;6.274;2022-11-12T08:32:18;99195.41;;;4.03;100.00
70506;BME280;58032;49.820;6.274;2022-11-12T08:35:03;99203.50;;;3.85;100.00
70506;BME280;58032;49.820;6.274;2022-11-12T08:37:49;99204.31;;;4.12;100.00
70506;BME280;58032;49.820;6.274;2022-11-12T08:40:35;99204.00;;;3.67;100.00
70506;BME280;58032;49.820;6.274;2022-11-12T08:43:21;99211.84;;;4.11;100.00
70506;BME280;58032;49.820;6.274;2022-11-12T08:46:06;99208.56;;;4.33;100.00
70506;BME280;58032;49.820;6.274;2022-11-12T08:48:52;99201.09;;;4.10;100.00
70506;BME280;58032;49.820;6.274;2022-11-12T08:51:37;99200.44;;;3.93;100.00
70506;BME280;58032;49.820;6.274;2022-11-12T08:54:23;99196.28;;;4.10;100.00
70506;BME280;58032;49.820;6.274;2022-11-12T08:57:09;99195.19;;;4.46;100.00
70506;BME280;58032;49.820;6.274;2022-11-12T08:59:54;99200.22;;;4.63;100.00
70506;BME280;58032;49.820;6.274;2022-11-12T09:02:39;99186.94;;;4.90;100.00
70506;BME280;58032;49.820;6.274;2022-11-12T09:05:25;99188.41;;;4.43;100.00
70506;BME280;58032;49.820;6.274;2022-11-12T09:08:14;99195.19;;;3.88;100.00
70506;BME280;58032;49.820;6.274;2022-11-12T09:11:02;99195.28;;;4.22;100.00
70506;BME280;58032;49.820;6.274;2022-11-12T09:13:47;99186.16;;;4.90;100.00
70506;BME280;58032;49.820;6.274;2022-11-12T09:16:33;99183.50;;;5.01;100.00
70506;BME280;58032;49.820;6.274;2022-11-12T09:19:18;99184.53;;;5.23;100.00
70506;BME280;58032;49.820;6.274;2022-11-12T09:22:03;99192.06;;;5.22;100.00
70506;BME280;58032;49.820;6.274;2022-11-12T09:24:49;99186.44;;;4.78;100.00
70506;BME280;58032;49.820;6.274;2022-11-12T09:27:34;99186.50;;;4.51;100.00
70506;BME280;58032;49.820;6.274;2022-11-12T09:30:20;99190.16;;;4.55;100.00
70506;BME280;58032;49.820;6.274;2022-11-12T09:33:05;99177.50;;;5.40;100.00
70506;BME280;58032;49.820;6.274;2022-11-12T09:35:51;99181.91;;;5.45;100.00
70506;BME280;58032;49.820;6.274;2022-11-12T09:38:38;99177.66;;;5.62;100.00
70506;BME280;58032;49.820;6.274;2022-11-12T09:41:50;99175.50;;;5.93;100.00
70506;BME280;58032;49.820;6.274;2022-11-12T09:44:36;99167.69;;;6.13;100.00
70506;BME280;58032;49.820;6.274;2022-11-12T09:47:33;99168.06;;;5.59;100.00
70506;BME280;58032;49.820;6.274;2022-11-12T09:50:31;99171.78;;;5.70;100.00
70506;BME280;58032;49.820;6.274;2022-11-12T09:53:39;99176.34;;;5.97;100.00
70506;BME280;58032;49.820;6.274;2022-11-12T09:56:28;99178.13;;;6.23;100.00
70506;BME280;58032;49.820;6.274;2022-11-12T09:59:15;99176.50;;;6.15;100.00
70506;BME280;58032;49.820;6.274;2022-11-12T10:08:27;99175.66;;;6.11;100.00
70506;BME280;58032;49.820;6.274;2022-11-12T10:14:56;99168.22;;;6.37;100.00
70506;BME280;58032;49.820;6.274;2022-11-12T10:17:50;99164.63;;;6.40;100.00
70506;BME280;58032;49.820;6.274;2022-11-12T10:20:51;99157.53;;;6.60;100.00
70506;BME280;58032;49.820;6.274;2022-11-12T10:26:25;99149.56;;;6.70;100.00
70506;BME280;58032;49.820;6.274;2022-11-12T10:31:56;99144.66;;;6.41;100.00
70506;BME280;58032;49.820;6.274;2022-11-12T10:34:41;99141.31;;;6.10;100.00
70506;BME280;58032;49.820;6.274;2022-11-12T10:40:40;99145.47;;;5.82;100.00
70506;BME280;58032;49.820;6.274;2022-11-12T10:43:26;99147.88;;;6.43;100.00
70506;BME280;58032;49.820;6.274;2022-11-12T10:46:26;99142.69;;;6.49;100.00
70506;BME280;58032;49.820;6.274;2022-11-12T10:51:58;99135.91;;;6.57;100.00
70506;BME280;58032;49.820;6.274;2022-11-12T10:54:44;99133.31;;;6.12;100.00
70506;BME280;58032;49.820;6.274;2022-11-12T10:57:29;99129.75;;;6.19;100.00
70506;BME280;58032;49.820;6.274;2022-11-12T11:00:18;99134.19;;;6.31;100.00
70506;BME280;58032;49.820;6.274;2022-11-12T11:03:14;99126.75;;;6.64;100.00
70506;BME280;58032;49.820;6.274;2022-11-12T11:06:05;99111.22;;;6.95;100.00
70506;BME280;58032;49.820;6.274;2022-11-12T11:08:53;99101.63;;;7.43;100.00
70506;BME280;58032;49.820;6.274;2022-11-12T11:11:52;99091.63;;;7.24;100.00
70506;BME280;58032;49.820;6.274;2022-11-12T11:14:38;99089.09;;;6.43;100.00
70506;BME280;58032;49.820;6.274;2022-11-12T11:17:24;99088.81;;;7.13;100.00
70506;BME280;58032;49.820;6.274;2022-11-12T11:20:40;99079.94;;;7.91;100.00
70506;BME280;58032;49.820;6.274;2022-11-12T11:23:39;99076.06;;;7.20;100.00
70506;BME280;58032;49.820;6.274;2022-11-12T11:32:46;99081.25;;;7.03;100.00
70506;BME280;58032;49.820;6.274;2022-11-12T11:36:01;99074.03;;;7.27;100.00
70506;BME280;58032;49.820;6.274;2022-11-12T11:39:02;99070.38;;;7.78;100.00
70506;BME280;58032;49.820;6.274;2022-11-12T11:44:58;99067.22;;;6.96;100.00
70506;BME280;58032;49.820;6.274;2022-11-12T11:47:53;99070.03;;;7.25;100.00
70506;BME280;58032;49.820;6.274;2022-11-12T11:57:19;99072.84;;;7.25;100.00
70506;BME280;58032;49.820;6.274;2022-11-12T12:00:19;99069.56;;;7.84;100.00
70506;BME280;58032;49.820;6.274;2022-11-12T12:03:16;99063.56;;;7.79;100.00
70506;BME280;58032;49.820;6.274;2022-11-12T12:06:19;99065.06;;;8.08;100.00
70506;BME280;58032;49.820;6.274;2022-11-12T12:09:52;99057.59;;;7.66;100.00
70506;BME280;58032;49.820;6.274;2022-11-12T12:15:59;99048.72;;;7.82;100.00
70506;BME280;58032;49.820;6.274;2022-11-12T12:19:00;99036.97;;;8.23;100.00
70506;BME280;58032;49.820;6.274;2022-11-12T12:21:49;99041.50;;;7.91;100.00
70506;BME280;58032;49.820;6.274;2022-11-12T12:27:33;99035.97;;;7.55;100.00
70506;BME280;58032;49.820;6.274;2022-11-12T12:30:22;99033.63;;;7.25;100.00
70506;BME280;58032;49.820;6.274;2022-11-12T12:36:15;99033.09;;;7.91;100.00
70506;BME280;58032;49.820;6.274;2022-11-12T12:39:14;99027.81;;;8.08;100.00
70506;BME280;58032;49.820;6.274;2022-11-12T12:42:13;99023.50;;;7.89;100.00
70506;BME280;58032;49.820;6.274;2022-11-12T12:45:13;99023.47;;;7.96;100.00
70506;BME280;58032;49.820;6.274;2022-11-12T12:48:12;99031.91;;;7.85;100.00
70506;BME280;58032;49.820;6.274;2022-11-12T12:50:58;99028.69;;;7.87;100.00
70506;BME280;58032;49.820;6.274;2022-11-12T12:53:43;99029.38;;;8.13;100.00
70506;BME280;58032;49.820;6.274;2022-11-12T12:59:19;99041.56;;;7.55;100.00
70506;BME280;58032;49.820;6.274;2022-11-12T13:02:18;99023.09;;;7.87;100.00
70506;BME280;58032;49.820;6.274;2022-11-12T13:05:05;99018.25;;;7.91;100.00
70506;BME280;58032;49.820;6.274;2022-11-12T13:07:51;99012.56;;;8.05;100.00
70506;BME280;58032;49.820;6.274;2022-11-12T13:13:36;98996.22;;;7.93;100.00
70506;BME280;58032;49.820;6.274;2022-11-12T13:25:30;98984.13;;;8.07;100.00
70506;BME280;58032;49.820;6.274;2022-11-12T13:28:16;98980.91;;;8.08;100.00
70506;BME280;58032;49.820;6.274;2022-11-12T13:31:02;98978.00;;;8.30;100.00
70506;BME280;58032;49.820;6.274;2022-11-12T13:33:47;98977.38;;;7.90;100.00
70506;BME280;58032;49.820;6.274;2022-11-12T13:36:33;98982.81;;;8.30;100.00
70506;BME280;58032;49.820;6.274;2022-11-12T13:39:19;98974.88;;;8.10;100.00
70506;BME280;58032;49.820;6.274;2022-11-12T13:42:15;98981.91;;;8.47;100.00
70506;BME280;58032;49.820;6.274;2022-11-12T13:45:22;98979.56;;;8.35;100.00
70506;BME280;58032;49.820;6.274;2022-11-12T13:48:14;98980.09;;;8.15;100.00
70506;BME280;58032;49.820;6.274;2022-11-12T13:51:05;98978.31;;;8.43;100.00
70506;BME280;58032;49.820;6.274;2022-11-12T13:53:51;98974.06;;;8.17;100.00
70506;BME280;58032;49.820;6.274;2022-11-12T13:56:37;98970.53;;;8.02;100.00
70506;BME280;58032;49.820;6.274;2022-11-12T13:59:24;98964.34;;;8.32;100.00
70506;BME280;58032;49.820;6.274;2022-11-12T14:02:19;98967.06;;;8.54;100.00
70506;BME280;58032;49.820;6.274;2022-11-12T14:05:17;98969.31;;;8.03;100.00
70506;BME280;58032;49.820;6.274;2022-11-12T14:08:25;98971.84;;;8.57;100.00
70506;BME280;58032;49.820;6.274;2022-11-12T14:14:26;98968.09;;;8.75;100.00
70506;BME280;58032;49.820;6.274;2022-11-12T14:20:54;98976.25;;;8.58;100.00
70506;BME280;58032;49.820;6.274;2022-11-12T14:23:43;98962.91;;;8.73;100.00
70506;BME280;58032;49.820;6.274;2022-11-12T14:29:18;98951.00;;;8.58;100.00
70506;BME280;58032;49.820;6.274;2022-11-12T14:32:07;98945.72;;;8.64;100.00
70506;BME280;58032;49.820;6.274;2022-11-12T14:34:53;98944.28;;;8.37;100.00
70506;BME280;58032;49.820;6.274;2022-11-12T14:37:38;98939.44;;;8.42;100.00
70506;BME280;58032;49.820;6.274;2022-11-12T14:40:29;98932.38;;;8.19;100.00
70506;BME280;58032;49.820;6.274;2022-11-12T14:43:31;98933.97;;;8.23;100.00
70506;BME280;58032;49.820;6.274;2022-11-12T14:46:29;98931.16;;;8.20;100.00
70506;BME280;58032;49.820;6.274;2022-11-12T14:52:21;98939.28;;;8.03;100.00
70506;BME280;58032;49.820;6.274;2022-11-12T14:55:19;98934.47;;;8.04;100.00
70506;BME280;58032;49.820;6.274;2022-11-12T14:58:05;98939.56;;;8.20;100.00
70506;BME280;58032;49.820;6.274;2022-11-12T15:00:52;98933.09;;;8.30;100.00
70506;BME280;58032;49.820;6.274;2022-11-12T15:03:38;98933.94;;;8.27;100.00
70506;BME280;58032;49.820;6.274;2022-11-12T15:06:29;98929.94;;;8.21;100.00
70506;BME280;58032;49.820;6.274;2022-11-12T15:09:17;98937.63;;;8.10;100.00
70506;BME280;58032;49.820;6.274;2022-11-12T15:12:11;98931.59;;;8.15;100.00
70506;BME280;58032;49.820;6.274;2022-11-12T15:15:15;98932.09;;;7.95;100.00
70506;BME280;58032;49.820;6.274;2022-11-12T15:18:03;98922.03;;;8.05;100.00
70506;BME280;58032;49.820;6.274;2022-11-12T15:21:24;98924.44;;;8.03;100.00
70506;BME280;58032;49.820;6.274;2022-11-12T15:27:46;98922.28;;;7.51;100.00
70506;BME280;58032;49.820;6.274;2022-11-12T15:30:19;98916.66;;;7.58;100.00
70506;BME280;58032;49.820;6.274;2022-11-12T15:36:00;98919.50;;;7.51;100.00
70506;BME280;58032;49.820;6.274;2022-11-12T15:38:51;98913.94;;;7.29;100.00
70506;BME280;58032;49.820;6.274;2022-11-12T15:41:45;98917.19;;;7.09;100.00
70506;BME280;58032;49.820;6.274;2022-11-12T15:44:37;98907.97;;;7.09;100.00
70506;BME280;58032;49.820;6.274;2022-11-12T15:47:22;98910.44;;;6.85;100.00
70506;BME280;58032;49.820;6.274;2022-11-12T15:50:16;98907.63;;;6.74;100.00
70506;BME280;58032;49.820;6.274;2022-11-12T15:53:02;98905.63;;;6.68;100.00
70506;BME280;58032;49.820;6.274;2022-11-12T15:55:48;98904.81;;;6.60;100.00
70506;BME280;58032;49.820;6.274;2022-11-12T15:58:36;98898.84;;;6.43;100.00
70506;BME280;58032;49.820;6.274;2022-11-12T16:01:22;98908.03;;;6.33;100.00
70506;BME280;58032;49.820;6.274;2022-11-12T16:04:09;98910.41;;;6.24;100.00
70506;BME280;58032;49.820;6.274;2022-11-12T16:06:56;98904.81;;;6.20;100.00
70506;BME280;58032;49.820;6.274;2022-11-12T16:09:41;98896.81;;;6.15;100.00
70506;BME280;58032;49.820;6.274;2022-11-12T16:12:26;98901.22;;;6.16;100.00
70506;BME280;58032;49.820;6.274;2022-11-12T16:15:14;98904.03;;;6.20;100.00